Time;durP1;ratioP1;P1;durP2;ratioP2;P2;SDS_P1;SDS_P2;PMS_P1;PMS_P2;Temp;Humidity;BMP_temperature;BMP_pressure;BME280_temperature;BME280_humidity;BME280_pressure;Samples;Min_cycle;Max_cycle;Signal;HPM_P1;HPM_P2
2022/07/29 00:01:07;;;;;;;1.48;0.30;;;20.30;67.60;;;;;;5032919;28;20072;-74
2022/07/29 00:03:33;;;;;;;2.03;0.30;;;20.30;67.70;;;;;;5033212;28;20032;-75
2022/07/29 00:05:58;;;;;;;1.98;0.30;;;20.30;67.80;;;;;;5033084;28;20529;-75
2022/07/29 00:08:24;;;;;;;1.58;0.20;;;20.20;68.00;;;;;;5033158;28;20022;-74
2022/07/29 00:10:49;;;;;;;2.72;0.30;;;20.10;68.10;;;;;;5033102;28;20457;-74
2022/07/29 00:13:15;;;;;;;1.45;0.20;;;20.20;68.30;;;;;;5032854;28;20017;-74
2022/07/29 00:15:41;;;;;;;1.67;0.30;;;20.10;68.40;;;;;;5036682;28;20116;-74
2022/07/29 00:18:07;;;;;;;2.10;0.30;;;20.10;68.60;;;;;;5036662;28;20029;-74
2022/07/29 00:20:33;;;;;;;2.55;0.30;;;19.90;69.00;;;;;;5036360;28;20030;-74
2022/07/29 00:22:58;;;;;;;4.28;0.30;;;19.90;69.30;;;;;;5036496;28;20052;-74
2022/07/29 00:25:24;;;;;;;3.00;0.40;;;20.10;69.00;;;;;;5036794;28;20183;-75
2022/07/29 00:27:50;;;;;;;2.08;0.30;;;20.20;68.80;;;;;;5036743;28;20048;-74
2022/07/29 00:30:15;;;;;;;2.55;0.30;;;20.20;68.50;;;;;;5036722;28;20354;-74
2022/07/29 00:32:41;;;;;;;3.30;0.30;;;20.20;69.30;;;;;;5036179;28;20030;-74
2022/07/29 00:37:52;;;;;;;1.30;0.20;;;20.20;68.70;;;;;;5036464;28;20044;-74
2022/07/29 00:40:17;;;;;;;2.70;0.30;;;20.20;68.70;;;;;;5036633;28;20021;-74
2022/07/29 00:42:44;;;;;;;1.85;0.40;;;20.20;68.70;;;;;;5035942;28;20487;-74
2022/07/29 00:45:11;;;;;;;3.47;0.40;;;20.20;68.70;;;;;;5036176;28;20037;-74
2022/07/29 00:47:36;;;;;;;2.65;0.43;;;20.30;68.70;;;;;;5036125;28;20111;-74
2022/07/29 00:50:04;;;;;;;2.47;0.43;;;20.30;68.60;;;;;;5036385;28;20053;-74
2022/07/29 00:52:30;;;;;;;2.90;0.52;;;20.20;69.00;;;;;;5035967;28;20475;-74
2022/07/29 00:54:56;;;;;;;4.03;0.30;;;20.20;68.90;;;;;;5035970;28;20053;-74
2022/07/29 00:57:22;;;;;;;2.38;0.40;;;20.20;68.80;;;;;;5036087;28;20083;-75
2022/07/29 00:59:47;;;;;;;4.70;0.38;;;20.20;68.80;;;;;;5035845;28;20039;-74
2022/07/29 01:02:13;;;;;;;2.92;0.40;;;20.20;68.80;;;;;;5035647;28;20028;-75
2022/07/29 01:04:39;;;;;;;4.30;0.60;;;20.10;69.10;;;;;;5037207;28;20029;-74
2022/07/29 01:07:06;;;;;;;2.75;0.55;;;20.10;69.10;;;;;;5035993;28;20068;-74
2022/07/29 01:09:33;;;;;;;1.25;0.30;;;20.10;69.30;;;;;;5035827;28;20075;-74
2022/07/29 01:11:59;;;;;;;3.60;0.40;;;20.10;69.20;;;;;;5035476;28;20469;-75
2022/07/29 01:14:26;;;;;;;1.95;0.30;;;20.10;69.10;;;;;;5035572;28;20025;-74
2022/07/29 01:17:07;;;;;;;4.85;0.60;;;20.20;69.00;;;;;;5035823;28;20029;-74
2022/07/29 01:19:41;;;;;;;4.60;0.65;;;20.20;69.30;;;;;;5035563;28;20022;-74
2022/07/29 01:22:19;;;;;;;3.95;0.45;;;20.00;69.50;;;;;;5035412;28;20052;-74
2022/07/29 01:25:16;;;;;;;3.58;0.77;;;20.00;69.70;;;;;;5035478;28;20441;-74
2022/07/29 01:28:06;;;;;;;5.60;0.90;;;19.90;69.50;;;;;;5035437;28;20575;-74
2022/07/29 01:30:35;;;;;;;2.55;0.52;;;19.90;70.20;;;;;;5035364;28;20029;-74
2022/07/29 01:33:05;;;;;;;3.65;0.70;;;19.80;70.40;;;;;;5035331;28;20025;-74
2022/07/29 01:35:44;;;;;;;3.42;0.60;;;19.80;70.20;;;;;;5035269;28;20489;-74
2022/07/29 01:38:17;;;;;;;2.88;0.60;;;19.90;70.70;;;;;;5035405;28;20384;-74
2022/07/29 01:40:53;;;;;;;2.95;0.65;;;19.90;70.10;;;;;;5035324;28;20018;-74
2022/07/29 01:43:27;;;;;;;1.48;0.40;;;19.80;70.50;;;;;;5035441;28;20100;-74
2022/07/29 01:46:00;;;;;;;2.10;0.60;;;19.80;70.40;;;;;;5035169;28;20038;-74
2022/07/29 01:48:56;;;;;;;3.58;0.50;;;19.90;70.30;;;;;;5035222;28;20049;-74
2022/07/29 01:51:49;;;;;;;4.28;0.77;;;19.90;70.30;;;;;;5020193;28;20048;-74
2022/07/29 01:54:26;;;;;;;4.15;0.50;;;19.90;70.30;;;;;;5028914;28;20044;-74
2022/07/29 01:56:55;;;;;;;3.97;0.45;;;19.90;70.40;;;;;;5035125;28;20388;-74
2022/07/29 01:59:21;;;;;;;4.43;0.60;;;19.90;70.20;;;;;;5034640;28;20108;-74
2022/07/29 02:01:50;;;;;;;2.10;0.38;;;20.00;69.90;;;;;;5034663;28;20029;-75
2022/07/29 02:04:17;;;;;;;5.72;0.50;;;20.10;69.80;;;;;;5034429;28;20138;-74
2022/07/29 02:06:44;;;;;;;4.68;0.70;;;20.10;69.80;;;;;;5034494;28;20483;-74
2022/07/29 02:09:13;;;;;;;2.42;0.40;;;20.10;69.80;;;;;;5034276;28;20030;-74
2022/07/29 02:11:40;;;;;;;1.25;0.20;;;20.20;69.90;;;;;;5034764;28;20036;-74
2022/07/29 02:14:07;;;;;;;2.25;0.38;;;20.30;69.60;;;;;;5034482;28;20033;-74
2022/07/29 02:16:36;;;;;;;1.25;0.38;;;20.40;69.40;;;;;;5034733;28;20095;-75
2022/07/29 02:19:04;;;;;;;1.58;0.40;;;20.40;69.20;;;;;;5034214;28;20113;-74
2022/07/29 02:21:33;;;;;;;4.43;0.65;;;20.50;69.10;;;;;;5034502;28;20026;-75
2022/07/29 02:24:01;;;;;;;2.08;0.45;;;20.50;69.50;;;;;;5034361;28;20568;-74
2022/07/29 02:26:28;;;;;;;2.40;0.50;;;20.40;70.30;;;;;;5034354;28;20041;-75
2022/07/29 02:28:57;;;;;;;1.83;0.40;;;20.40;70.20;;;;;;5034530;28;20057;-74
2022/07/29 02:31:26;;;;;;;2.13;0.43;;;20.40;71.30;;;;;;5034228;28;20382;-74
2022/07/29 02:33:53;;;;;;;1.45;0.43;;;20.30;71.60;;;;;;5034179;28;20030;-74
2022/07/29 02:36:22;;;;;;;2.33;0.35;;;20.40;71.50;;;;;;5033555;28;20091;-75
2022/07/29 02:38:52;;;;;;;4.50;0.60;;;20.50;71.60;;;;;;5034406;28;20388;-74
2022/07/29 02:41:22;;;;;;;3.50;0.43;;;20.50;71.50;;;;;;5033948;28;20476;-74
2022/07/29 02:43:53;;;;;;;2.03;0.40;;;20.50;71.70;;;;;;5034413;28;20025;-74
2022/07/29 02:46:26;;;;;;;2.75;0.68;;;20.50;71.90;;;;;;5033565;28;20069;-74
2022/07/29 02:49:15;;;;;;;2.83;0.40;;;20.50;72.90;;;;;;5034404;28;20105;-74
2022/07/29 02:51:58;;;;;;;3.78;0.60;;;20.40;72.80;;;;;;5033980;28;20028;-74
2022/07/29 02:54:37;;;;;;;3.00;0.70;;;20.40;72.80;;;;;;5034052;28;20022;-74
2022/07/29 02:57:20;;;;;;;2.78;0.45;;;20.30;72.50;;;;;;5033517;28;20033;-74
2022/07/29 02:59:49;;;;;;;4.57;0.82;;;20.20;72.70;;;;;;5034094;28;20036;-75
2022/07/29 03:02:16;;;;;;;2.33;0.50;;;20.20;73.00;;;;;;5033526;28;20021;-74
2022/07/29 03:04:43;;;;;;;2.85;0.50;;;20.10;72.90;;;;;;5033847;28;20432;-74
2022/07/29 03:07:10;;;;;;;1.85;0.50;;;20.20;73.10;;;;;;5033475;28;20444;-74
2022/07/29 03:09:37;;;;;;;2.00;0.40;;;20.30;72.90;;;;;;5033281;28;20504;-74
2022/07/29 03:12:04;;;;;;;9.00;1.00;;;20.30;72.90;;;;;;5033552;28;20030;-74
2022/07/29 03:14:31;;;;;;;2.22;0.57;;;20.20;72.70;;;;;;5033563;28;20025;-74
2022/07/29 03:16:57;;;;;;;3.47;0.70;;;20.00;73.30;;;;;;5033560;28;20029;-74
2022/07/29 03:19:22;;;;;;;2.80;0.90;;;19.80;74.00;;;;;;5033410;28;20024;-74
2022/07/29 03:21:48;;;;;;;2.80;0.70;;;19.70;74.50;;;;;;5032933;28;20053;-75
2022/07/29 03:24:30;;;;;;;5.68;0.95;;;19.60;75.40;;;;;;5033360;28;20018;-75
2022/07/29 03:26:57;;;;;;;2.70;0.80;;;19.40;76.40;;;;;;5033334;28;20092;-75
2022/07/29 03:29:23;;;;;;;3.97;1.15;;;19.10;77.40;;;;;;5033596;28;20055;-75
2022/07/29 03:31:49;;;;;;;4.90;1.27;;;19.00;78.30;;;;;;5033283;28;20036;-75
2022/07/29 03:34:14;;;;;;;2.28;0.80;;;18.90;80.20;;;;;;5032905;28;20017;-75
2022/07/29 03:36:40;;;;;;;3.90;1.00;;;18.70;79.90;;;;;;5033203;28;20109;-75
2022/07/29 03:39:07;;;;;;;1.95;1.00;;;18.80;79.70;;;;;;5033233;28;20075;-75
2022/07/29 03:41:35;;;;;;;4.53;1.00;;;18.80;79.90;;;;;;5033223;28;20032;-75
2022/07/29 03:44:01;;;;;;;3.15;0.90;;;18.70;80.60;;;;;;5033292;28;20104;-75
2022/07/29 03:46:30;;;;;;;2.80;0.65;;;18.70;80.80;;;;;;5032878;28;20087;-75
2022/07/29 03:49:01;;;;;;;4.32;1.20;;;18.70;80.70;;;;;;5034214;28;20025;-75
2022/07/29 03:51:27;;;;;;;2.85;0.98;;;18.70;80.70;;;;;;5037527;28;20026;-75
2022/07/29 03:53:52;;;;;;;5.47;1.40;;;18.70;80.90;;;;;;5037083;28;20025;-74
2022/07/29 03:56:21;;;;;;;3.28;1.13;;;18.70;81.10;;;;;;5037281;28;20072;-74
2022/07/29 03:58:51;;;;;;;8.23;1.50;;;18.60;81.90;;;;;;5037324;28;20030;-74
2022/07/29 04:01:18;;;;;;;2.00;1.00;;;18.50;82.60;;;;;;5036990;28;20047;-74
2022/07/29 04:03:45;;;;;;;3.58;1.38;;;18.50;82.80;;;;;;5037288;28;20044;-74
2022/07/29 04:06:11;;;;;;;5.07;1.15;;;18.50;83.30;;;;;;5037192;28;20404;-74
2022/07/29 04:08:37;;;;;;;2.58;1.27;;;18.30;83.90;;;;;;5036969;28;20061;-74
2022/07/29 04:11:04;;;;;;;4.32;1.15;;;18.30;84.40;;;;;;5037139;28;20056;-74
2022/07/29 04:13:30;;;;;;;5.63;1.10;;;18.20;84.50;;;;;;5036614;28;20025;-74
2022/07/29 04:15:56;;;;;;;9.02;2.22;;;18.20;84.50;;;;;;5036655;28;20362;-74
2022/07/29 04:18:22;;;;;;;3.40;1.05;;;18.20;84.60;;;;;;5036883;28;20021;-74
2022/07/29 04:20:47;;;;;;;3.45;1.35;;;18.30;84.60;;;;;;5037054;28;20032;-74
2022/07/29 04:23:13;;;;;;;2.45;0.82;;;18.40;83.90;;;;;;5036210;28;20623;-74
2022/07/29 04:25:40;;;;;;;1.92;0.70;;;18.40;83.70;;;;;;5036512;28;20120;-74
2022/07/29 04:28:06;;;;;;;4.75;1.00;;;18.50;83.50;;;;;;5036342;28;20368;-75
2022/07/29 04:30:34;;;;;;;2.55;1.00;;;18.60;83.20;;;;;;5036534;28;20037;-74
2022/07/29 04:33:01;;;;;;;4.15;1.17;;;18.70;83.00;;;;;;5036686;28;20406;-75
2022/07/29 04:35:28;;;;;;;2.33;0.70;;;18.80;82.70;;;;;;5036211;28;20025;-74
2022/07/29 04:37:54;;;;;;;3.72;1.27;;;18.90;82.40;;;;;;5035947;28;20071;-74
2022/07/29 04:40:20;;;;;;;4.72;1.73;;;18.70;83.00;;;;;;5036108;28;20056;-74
2022/07/29 04:42:46;;;;;;;3.13;1.00;;;18.50;83.70;;;;;;5036370;28;20056;-74
2022/07/29 04:45:11;;;;;;;3.22;1.00;;;18.40;84.10;;;;;;5035901;28;20128;-74
2022/07/29 04:47:37;;;;;;;3.35;1.40;;;18.40;84.40;;;;;;5036186;28;20072;-75
2022/07/29 04:50:03;;;;;;;2.92;1.42;;;18.40;84.40;;;;;;5036004;28;20029;-75
2022/07/29 04:52:29;;;;;;;2.42;1.25;;;18.30;84.50;;;;;;5036000;28;20041;-75
2022/07/29 04:54:54;;;;;;;2.35;0.90;;;18.50;84.40;;;;;;5036333;28;20018;-75
2022/07/29 04:57:20;;;;;;;4.15;0.90;;;18.60;84.10;;;;;;5036450;28;20465;-75
2022/07/29 04:59:45;;;;;;;3.00;1.00;;;18.60;83.70;;;;;;5035502;28;20025;-75
2022/07/29 05:02:11;;;;;;;3.00;1.17;;;18.70;83.20;;;;;;5035858;28;20025;-75
2022/07/29 05:04:36;;;;;;;2.33;0.68;;;18.80;83.10;;;;;;5036025;28;20113;-75
2022/07/29 05:07:02;;;;;;;4.32;1.30;;;18.80;82.90;;;;;;5035803;28;20025;-73
2022/07/29 05:09:28;;;;;;;5.20;1.17;;;18.80;83.30;;;;;;5035884;28;20025;-73
2022/07/29 05:11:53;;;;;;;3.80;1.15;;;18.60;83.20;;;;;;5035482;28;20048;-73
2022/07/29 05:14:19;;;;;;;3.42;1.40;;;18.50;83.40;;;;;;5035946;28;20032;-73
2022/07/29 05:16:44;;;;;;;2.55;1.20;;;18.40;83.80;;;;;;5035518;28;20091;-74
2022/07/29 05:19:10;;;;;;;3.00;0.93;;;18.50;83.80;;;;;;5035429;28;20036;-74
2022/07/29 05:21:35;;;;;;;4.03;0.82;;;18.60;83.50;;;;;;5035224;28;20060;-74
2022/07/29 05:24:01;;;;;;;3.00;1.00;;;18.60;82.90;;;;;;5035591;28;20384;-74
2022/07/29 05:26:27;;;;;;;4.63;1.20;;;18.60;82.90;;;;;;5035136;28;20044;-74
2022/07/29 05:28:53;;;;;;;2.85;1.02;;;18.60;83.00;;;;;;5035172;28;20029;-74
2022/07/29 05:31:19;;;;;;;2.63;1.35;;;18.50;83.20;;;;;;5035351;28;20426;-74
2022/07/29 05:33:45;;;;;;;4.90;1.10;;;18.50;83.80;;;;;;5035423;28;20029;-74
2022/07/29 05:36:11;;;;;;;3.83;0.90;;;18.20;84.40;;;;;;5035195;28;20033;-74
2022/07/29 05:38:37;;;;;;;3.50;1.13;;;18.20;84.60;;;;;;5035118;28;20092;-74
2022/07/29 05:41:04;;;;;;;3.88;1.08;;;18.30;84.60;;;;;;5035198;28;20028;-74
2022/07/29 05:43:30;;;;;;;5.15;1.10;;;18.40;84.50;;;;;;5035502;28;20144;-74
2022/07/29 05:45:56;;;;;;;3.10;1.20;;;18.50;84.20;;;;;;5035297;28;20120;-74
2022/07/29 05:48:22;;;;;;;3.97;1.52;;;18.50;84.30;;;;;;5034895;28;20037;-74
2022/07/29 05:50:47;;;;;;;5.18;1.35;;;18.60;83.90;;;;;;5035285;28;20021;-74
2022/07/29 05:53:15;;;;;;;4.53;1.33;;;18.50;84.70;;;;;;5034660;28;20476;-74
2022/07/29 05:55:42;;;;;;;8.60;1.25;;;18.30;85.50;;;;;;5034870;28;20083;-74
2022/07/29 05:58:07;;;;;;;6.28;1.60;;;18.30;85.70;;;;;;5035105;28;20025;-74
2022/07/29 06:00:34;;;;;;;5.35;1.50;;;18.20;86.00;;;;;;5034752;28;20117;-74
2022/07/29 06:03:00;;;;;;;4.57;1.30;;;18.00;86.60;;;;;;5034780;28;20022;-74
2022/07/29 06:05:25;;;;;;;4.50;1.50;;;17.90;87.50;;;;;;5034963;28;20147;-75
2022/07/29 06:07:51;;;;;;;3.78;1.60;;;17.90;87.90;;;;;;5034723;28;20112;-75
2022/07/29 06:10:16;;;;;;;5.95;1.27;;;17.90;88.00;;;;;;5034580;28;20030;-75
2022/07/29 06:12:42;;;;;;;4.57;1.38;;;18.00;87.60;;;;;;5033616;28;20021;-75
2022/07/29 06:15:08;;;;;;;3.50;1.02;;;18.00;87.60;;;;;;5034832;28;20029;-75
2022/07/29 06:17:34;;;;;;;5.75;1.90;;;18.00;87.80;;;;;;5034664;28;20048;-75
2022/07/29 06:20:00;;;;;;;7.47;2.05;;;18.20;87.30;;;;;;5034311;28;20461;-75
2022/07/29 06:22:25;;;;;;;2.78;1.50;;;18.00;87.90;;;;;;5034415;28;20386;-75
2022/07/29 06:24:51;;;;;;;5.90;1.30;;;18.00;87.60;;;;;;5034200;28;20628;-75
2022/07/29 06:27:16;;;;;;;5.35;1.48;;;18.00;87.50;;;;;;5034552;28;20028;-75
2022/07/29 06:29:42;;;;;;;4.03;1.55;;;18.00;87.70;;;;;;5034578;28;20048;-75
2022/07/29 06:32:08;;;;;;;4.15;1.33;;;18.00;87.90;;;;;;5034090;28;20025;-74
2022/07/29 06:34:35;;;;;;;2.40;1.00;;;18.10;87.40;;;;;;5034472;28;20072;-74
2022/07/29 06:37:05;;;;;;;3.67;1.00;;;18.20;87.20;;;;;;5034176;28;20033;-74
2022/07/29 06:39:30;;;;;;;4.32;2.20;;;18.40;87.10;;;;;;5033775;28;20032;-73
2022/07/29 06:41:56;;;;;;;5.47;1.83;;;18.50;86.70;;;;;;5034091;28;20018;-74
2022/07/29 06:44:21;;;;;;;4.20;1.00;;;18.60;86.30;;;;;;5034055;28;20029;-74
2022/07/29 06:46:49;;;;;;;1.70;0.75;;;18.80;86.40;;;;;;5033818;28;20477;-74
2022/07/29 06:49:15;;;;;;;5.03;1.30;;;18.90;85.10;;;;;;5033945;28;20040;-74
2022/07/29 06:51:41;;;;;;;3.85;1.00;;;19.10;84.50;;;;;;5033964;28;20359;-74
2022/07/29 06:54:06;;;;;;;2.40;1.10;;;19.20;84.40;;;;;;5033910;28;20071;-74
2022/07/29 06:56:36;;;;;;;2.47;1.02;;;19.30;84.60;;;;;;5033782;28;20381;-74
2022/07/29 06:59:02;;;;;;;4.30;1.42;;;19.50;84.20;;;;;;5033735;28;20411;-74
2022/07/29 07:01:28;;;;;;;3.30;1.23;;;19.60;84.10;;;;;;5033498;28;20021;-74
2022/07/29 07:03:54;;;;;;;3.67;1.02;;;19.50;83.80;;;;;;5033981;28;20152;-74
2022/07/29 07:06:19;;;;;;;2.10;0.90;;;19.60;83.60;;;;;;5033307;28;20033;-74
2022/07/29 07:08:45;;;;;;;5.07;1.00;;;19.60;83.30;;;;;;5033774;28;20045;-74
2022/07/29 07:11:11;;;;;;;2.65;0.60;;;19.80;83.20;;;;;;5033722;28;20025;-74
2022/07/29 07:13:36;;;;;;;5.60;0.77;;;19.80;83.10;;;;;;5033719;28;20025;-74
2022/07/29 07:16:03;;;;;;;3.78;1.30;;;20.00;82.60;;;;;;5033387;28;20039;-74
2022/07/29 07:18:28;;;;;;;4.50;1.20;;;20.10;81.70;;;;;;5033580;28;20025;-74
2022/07/29 07:20:54;;;;;;;6.82;1.45;;;20.00;81.50;;;;;;5033361;28;20032;-74
2022/07/29 07:23:19;;;;;;;3.55;1.08;;;19.90;81.40;;;;;;5033025;28;20132;-73
2022/07/29 07:25:45;;;;;;;2.33;1.05;;;20.00;81.70;;;;;;5033426;28;20038;-74
2022/07/29 07:28:11;;;;;;;2.78;1.30;;;19.80;81.60;;;;;;5033399;28;20461;-74
2022/07/29 07:30:36;;;;;;;5.75;1.05;;;19.60;81.80;;;;;;5033322;28;20029;-74
2022/07/29 07:33:02;;;;;;;4.75;1.15;;;19.50;82.70;;;;;;5033172;28;20469;-75
2022/07/29 07:35:28;;;;;;;3.80;1.08;;;19.60;83.00;;;;;;5033167;28;20507;-74
2022/07/29 07:37:55;;;;;;;5.25;1.20;;;19.70;82.70;;;;;;5033066;28;20083;-74
2022/07/29 07:40:21;;;;;;;2.95;1.08;;;19.70;81.80;;;;;;5033487;28;20457;-75
2022/07/29 07:42:46;;;;;;;4.28;1.17;;;19.60;82.00;;;;;;5033069;28;20108;-74
2022/07/29 07:45:12;;;;;;;2.85;1.25;;;19.60;82.50;;;;;;5032984;28;20136;-74
2022/07/29 07:47:38;;;;;;;5.18;1.10;;;19.50;81.90;;;;;;5033075;28;20373;-74
2022/07/29 07:50:09;;;;;;;5.75;1.45;;;19.30;82.50;;;;;;5033377;28;20064;-74
2022/07/29 07:52:45;;;;;;;4.50;0.95;;;19.30;83.00;;;;;;5032940;28;20030;-74
2022/07/29 07:55:10;;;;;;;3.85;1.17;;;19.40;83.10;;;;;;5033236;28;20030;-75
2022/07/29 07:57:36;;;;;;;1.67;1.00;;;19.60;83.10;;;;;;5033103;28;20544;-75
2022/07/29 08:00:03;;;;;;;5.93;1.40;;;19.60;82.80;;;;;;5033028;28;20026;-74
2022/07/29 08:02:28;;;;;;;3.17;1.00;;;19.60;82.70;;;;;;5032618;28;20049;-75
2022/07/29 08:04:54;;;;;;;3.50;0.65;;;19.70;82.60;;;;;;5033167;28;20053;-75
2022/07/29 08:07:19;;;;;;;2.88;1.10;;;19.80;82.20;;;;;;5033046;28;20520;-74
2022/07/29 08:09:45;;;;;;;5.60;1.23;;;19.80;81.70;;;;;;5032906;28;20025;-74
2022/07/29 08:12:11;;;;;;;4.63;0.90;;;19.70;81.80;;;;;;5033095;28;20065;-75
2022/07/29 08:14:36;;;;;;;2.97;1.05;;;19.60;82.50;;;;;;5032775;28;20049;-74
2022/07/29 08:17:02;;;;;;;4.40;1.40;;;19.50;82.80;;;;;;5032885;28;20515;-74
2022/07/29 08:19:28;;;;;;;2.10;0.70;;;19.50;82.60;;;;;;5032802;28;20033;-75
2022/07/29 08:21:54;;;;;;;4.63;0.88;;;19.60;82.60;;;;;;5032780;28;20049;-75
2022/07/29 08:27:05;;;;;;;1.75;0.60;;;19.80;82.60;;;;;;5033085;28;20542;-75
2022/07/29 08:29:30;;;;;;;2.95;1.08;;;19.90;82.30;;;;;;5032606;28;20116;-75
2022/07/29 08:31:56;;;;;;;3.88;1.20;;;20.00;82.20;;;;;;5032570;28;20067;-73
2022/07/29 08:34:21;;;;;;;2.35;0.80;;;20.10;82.20;;;;;;5033089;28;20026;-74
2022/07/29 08:36:49;;;;;;;4.18;1.00;;;20.00;82.50;;;;;;5036643;28;20017;-74
2022/07/29 08:39:15;;;;;;;3.70;1.20;;;19.90;82.70;;;;;;5036364;28;20029;-74
2022/07/29 08:41:40;;;;;;;2.50;0.52;;;20.00;83.00;;;;;;5036645;28;20457;-75
2022/07/29 08:44:06;;;;;;;2.17;0.80;;;20.10;82.70;;;;;;5036496;28;20040;-75
2022/07/29 08:46:38;;;;;;;2.08;0.70;;;20.20;83.20;;;;;;5036023;28;20041;-75
2022/07/29 08:49:04;;;;;;;1.17;0.65;;;20.30;82.20;;;;;;5035913;28;20468;-75
2022/07/29 08:51:32;;;;;;;6.18;0.95;;;20.40;81.90;;;;;;5036248;28;20040;-75
2022/07/29 08:53:58;;;;;;;3.88;0.75;;;20.40;82.10;;;;;;5036010;28;20056;-75
2022/07/29 08:56:23;;;;;;;1.85;0.70;;;20.50;82.20;;;;;;5035889;28;20081;-75
2022/07/29 08:58:50;;;;;;;1.95;0.77;;;20.50;82.40;;;;;;5035818;28;20108;-75
2022/07/29 09:01:23;;;;;;;6.30;1.10;;;20.60;82.20;;;;;;5035318;28;20037;-75
2022/07/29 09:03:49;;;;;;;5.32;1.15;;;20.60;81.80;;;;;;5035594;28;20022;-75
2022/07/29 09:06:17;;;;;;;2.85;0.73;;;20.50;81.60;;;;;;5035526;28;20048;-75
2022/07/29 09:08:44;;;;;;;4.60;0.90;;;20.50;81.70;;;;;;5035378;28;20376;-74
2022/07/29 09:11:11;;;;;;;2.97;0.85;;;20.50;82.10;;;;;;5035163;28;20116;-75
2022/07/29 09:13:37;;;;;;;2.22;0.90;;;20.50;82.20;;;;;;5035592;28;20500;-75
2022/07/29 09:16:03;;;;;;;3.50;1.20;;;20.50;82.30;;;;;;5035677;28;20026;-75
2022/07/29 09:18:42;;;;;;;3.85;1.17;;;20.50;82.00;;;;;;5035483;28;20036;-75
2022/07/29 09:24:02;;;;;;;4.10;1.52;;;20.20;82.20;;;;;;5035462;28;20061;-75
2022/07/29 09:26:29;;;;;;;7.45;1.58;;;20.20;82.40;;;;;;5035329;28;20064;-75
2022/07/29 09:28:55;;;;;;;4.53;1.17;;;20.20;82.70;;;;;;5035366;28;20036;-75
2022/07/29 09:31:34;;;;;;;3.20;1.10;;;20.30;82.80;;;;;;5035460;28;20026;-75
2022/07/29 09:34:02;;;;;;;5.05;1.45;;;20.40;82.80;;;;;;5035185;28;20040;-75
2022/07/29 09:36:29;;;;;;;7.07;1.42;;;20.40;82.70;;;;;;5035055;28;20052;-75
2022/07/29 09:38:59;;;;;;;4.20;1.20;;;20.40;82.50;;;;;;5035520;28;20041;-75
2022/07/29 09:41:26;;;;;;;4.40;1.42;;;20.30;82.70;;;;;;5035203;28;20022;-75
2022/07/29 09:43:59;;;;;;;6.60;1.35;;;20.40;83.10;;;;;;5035454;28;20040;-75
2022/07/29 09:46:25;;;;;;;6.03;1.75;;;20.40;82.60;;;;;;5035425;28;20044;-75
2022/07/29 09:49:12;;;;;;;5.05;1.30;;;20.30;83.00;;;;;;5035065;28;20104;-75
2022/07/29 09:51:38;;;;;;;3.17;1.05;;;20.30;83.10;;;;;;5035292;28;20061;-75
2022/07/29 09:54:23;;;;;;;3.83;1.10;;;20.40;82.90;;;;;;5035132;28;20045;-75
2022/07/29 09:56:50;;;;;;;3.50;1.40;;;20.50;83.00;;;;;;5035012;28;20388;-75
2022/07/29 09:59:16;;;;;;;5.78;1.70;;;20.60;83.40;;;;;;5034877;28;20026;-75
2022/07/29 10:01:42;;;;;;;5.45;1.45;;;20.50;84.00;;;;;;5034627;28;20025;-75
2022/07/29 10:04:07;;;;;;;2.83;1.50;;;20.40;83.90;;;;;;5034581;28;20049;-75
2022/07/29 10:06:33;;;;;;;6.28;1.80;;;20.50;84.80;;;;;;5034865;28;20127;-75
2022/07/29 10:09:10;;;;;;;5.13;1.80;;;20.50;85.50;;;;;;5034774;28;20436;-75
2022/07/29 10:11:36;;;;;;;5.65;1.60;;;20.50;85.30;;;;;;5034653;28;20032;-75
2022/07/29 10:14:03;;;;;;;3.72;1.40;;;20.50;85.80;;;;;;5034723;28;20022;-75
2022/07/29 10:16:32;;;;;;;3.97;1.30;;;20.70;86.00;;;;;;5034314;28;20504;-75
2022/07/29 10:18:59;;;;;;;4.72;1.58;;;20.90;85.20;;;;;;5034488;28;20495;-75
2022/07/29 10:21:25;;;;;;;3.47;1.52;;;21.10;85.00;;;;;;5034680;28;20017;-75
2022/07/29 10:23:52;;;;;;;2.53;1.50;;;21.40;85.40;;;;;;5034223;28;20103;-75
2022/07/29 10:26:19;;;;;;;4.30;1.48;;;21.70;85.60;;;;;;5034396;28;20044;-75
2022/07/29 10:28:45;;;;;;;3.92;1.25;;;22.00;83.50;;;;;;5034282;28;20060;-75
2022/07/29 10:31:26;;;;;;;4.13;1.20;;;22.30;83.70;;;;;;5034533;28;20041;-75
2022/07/29 10:34:16;;;;;;;6.05;1.20;;;22.60;83.50;;;;;;5034555;28;20022;-75
2022/07/29 10:37:05;;;;;;;5.35;1.75;;;22.80;82.60;;;;;;5034022;28;20221;-75
2022/07/29 10:39:36;;;;;;;3.65;1.58;;;22.90;78.50;;;;;;5034015;28;20036;-75
2022/07/29 10:42:17;;;;;;;6.20;1.50;;;22.70;77.10;;;;;;5034001;28;20499;-75
2022/07/29 10:44:44;;;;;;;7.38;1.42;;;22.60;77.30;;;;;;5033917;28;20036;-75
2022/07/29 10:47:21;;;;;;;5.90;1.48;;;22.60;77.30;;;;;;5033884;28;20028;-75
2022/07/29 10:50:02;;;;;;;9.25;1.50;;;22.60;77.30;;;;;;5034129;28;20026;-75
2022/07/29 10:52:53;;;;;;;5.78;1.30;;;22.50;76.80;;;;;;5034000;28;20096;-75
2022/07/29 10:55:38;;;;;;;4.20;0.77;;;22.50;78.10;;;;;;5034115;28;20424;-75
2022/07/29 10:58:17;;;;;;;3.47;0.60;;;22.60;76.00;;;;;;5033327;28;20392;-75
2022/07/29 11:00:43;;;;;;;2.70;0.68;;;22.80;76.20;;;;;;5033549;28;20071;-74
2022/07/29 11:03:09;;;;;;;4.03;0.85;;;23.10;76.00;;;;;;5032922;28;20502;-74
2022/07/29 11:06:07;;;;;;;10.90;1.10;;;23.30;73.70;;;;;;5033597;28;20033;-74
2022/07/29 11:08:32;;;;;;;5.40;1.20;;;23.30;73.30;;;;;;5010577;28;20443;-75
2022/07/29 11:11:19;;;;;;;5.20;1.25;;;23.20;72.90;;;;;;5033783;28;20034;-75
2022/07/29 11:13:46;;;;;;;3.47;1.33;;;23.30;72.70;;;;;;5033316;28;20498;-75
2022/07/29 11:16:12;;;;;;;6.03;1.27;;;23.30;72.50;;;;;;5033332;28;20092;-75
2022/07/29 11:19:12;;;;;;;4.13;0.90;;;23.60;72.60;;;;;;5033086;28;20460;-75
2022/07/29 11:21:40;;;;;;;3.78;0.90;;;23.70;72.10;;;;;;5033424;28;20104;-75
2022/07/29 11:24:14;;;;;;;3.47;0.80;;;23.90;72.10;;;;;;5033328;28;20026;-75
2022/07/29 11:26:41;;;;;;;4.35;1.00;;;24.00;71.70;;;;;;5033514;28;20048;-75
2022/07/29 11:29:20;;;;;;;4.32;1.30;;;24.20;70.30;;;;;;5032966;28;20046;-75
2022/07/29 11:31:53;;;;;;;3.67;1.05;;;24.30;69.70;;;;;;5033571;28;20030;-75
2022/07/29 11:34:29;;;;;;;3.75;0.98;;;24.20;69.20;;;;;;5033593;28;20428;-75
2022/07/29 11:37:16;;;;;;;3.33;1.10;;;24.30;71.00;;;;;;5033355;28;20032;-75
2022/07/29 11:39:53;;;;;;;4.93;1.15;;;24.50;70.00;;;;;;5033357;28;20021;-75
2022/07/29 11:42:24;;;;;;;4.57;1.35;;;24.70;69.60;;;;;;5033395;28;20026;-75
2022/07/29 11:45:08;;;;;;;4.30;1.05;;;24.80;69.00;;;;;;5032957;28;20022;-75
2022/07/29 11:47:47;;;;;;;6.18;1.10;;;25.00;69.60;;;;;;5032982;28;20116;-75
2022/07/29 11:50:27;;;;;;;5.00;1.20;;;25.10;70.00;;;;;;5032655;28;20024;-75
2022/07/29 11:52:53;;;;;;;2.60;0.73;;;25.40;68.10;;;;;;5033070;28;20040;-75
2022/07/29 11:55:22;;;;;;;3.65;1.00;;;25.50;67.10;;;;;;5032982;28;20026;-75
2022/07/29 11:57:47;;;;;;;5.38;1.52;;;25.60;66.40;;;;;;5033260;28;20029;-75
2022/07/29 12:00:34;;;;;;;2.78;0.93;;;25.60;66.50;;;;;;5032860;28;20539;-75
2022/07/29 12:03:03;;;;;;;4.85;0.98;;;25.60;66.80;;;;;;5032985;28;20547;-75
2022/07/29 12:05:46;;;;;;;4.80;1.25;;;25.70;65.90;;;;;;5032794;28;20041;-75
2022/07/29 12:08:14;;;;;;;6.45;0.80;;;26.00;66.10;;;;;;5032929;28;20495;-75
2022/07/29 12:10:41;;;;;;;3.92;0.77;;;25.90;65.20;;;;;;5035297;28;20036;-75
2022/07/29 12:13:07;;;;;;;6.55;1.30;;;25.80;65.00;;;;;;5037073;28;20033;-75
2022/07/29 12:15:34;;;;;;;3.75;0.70;;;25.70;64.20;;;;;;5036325;28;20037;-75
2022/07/29 12:18:17;;;;;;;2.63;1.00;;;25.50;65.20;;;;;;5036800;28;20393;-75
2022/07/29 12:20:44;;;;;;;3.00;1.10;;;25.50;65.10;;;;;;5036598;28;20025;-75
2022/07/29 12:23:13;;;;;;;3.97;1.05;;;25.70;66.30;;;;;;5036521;28;20501;-75
2022/07/29 12:25:41;;;;;;;6.78;0.88;;;25.90;67.20;;;;;;5036284;28;20033;-75
2022/07/29 12:28:09;;;;;;;5.38;1.08;;;26.20;67.00;;;;;;5036197;28;20484;-75
2022/07/29 12:30:55;;;;;;;3.97;1.00;;;26.40;66.20;;;;;;5036648;28;20425;-75
2022/07/29 12:33:28;;;;;;;4.80;0.90;;;26.50;66.00;;;;;;5036122;28;20033;-75
2022/07/29 12:36:00;;;;;;;4.40;0.70;;;26.60;64.00;;;;;;5036257;28;20473;-75
2022/07/29 12:38:26;;;;;;;2.28;0.80;;;26.50;64.40;;;;;;5036366;28;20506;-75
2022/07/29 12:40:53;;;;;;;2.88;0.77;;;26.70;63.20;;;;;;5036403;28;20029;-75
2022/07/29 12:43:21;;;;;;;3.60;0.73;;;26.80;62.00;;;;;;5036209;28;20036;-75
2022/07/29 12:45:55;;;;;;;5.72;1.00;;;26.90;62.00;;;;;;5036195;28;20121;-75
2022/07/29 12:48:41;;;;;;;5.35;1.67;;;27.00;62.60;;;;;;5036340;28;20381;-75
2022/07/29 12:51:08;;;;;;;3.20;1.00;;;27.10;61.00;;;;;;5036316;28;20112;-75
2022/07/29 12:53:34;;;;;;;4.05;0.70;;;27.00;61.10;;;;;;5035747;28;20507;-75
2022/07/29 12:56:01;;;;;;;3.30;0.77;;;27.00;61.90;;;;;;5036094;28;20025;-75
2022/07/29 12:58:31;;;;;;;3.70;1.13;;;27.20;62.30;;;;;;5035743;28;20392;-75
2022/07/29 13:01:04;;;;;;;5.72;0.93;;;27.40;61.30;;;;;;5036121;28;20054;-75
2022/07/29 13:03:42;;;;;;;3.53;0.77;;;27.40;59.20;;;;;;5036197;28;20104;-75
2022/07/29 13:06:48;;;;;;;4.55;1.20;;;27.40;58.80;;;;;;5035562;28;20033;-75